Time;durP1;ratioP1;P1;durP2;ratioP2;P2;SDS_P1;SDS_P2;PMS_P1;PMS_P2;Temp;Humidity;BMP_temperature;BMP_pressure;BME280_temperature;BME280_humidity;BME280_pressure;Samples;Min_cycle;Max_cycle;Signal;HPM_P1;HPM_P2
2021/04/14 00:01:55;;;;;;;9.20;4.30;;;4.20;88.50;;;;;;6245666;23;20019;-79
2021/04/14 00:04:21;;;;;;;6.85;3.63;;;4.20;89.80;;;;;;6246324;23;20023;-80
2021/04/14 00:06:47;;;;;;;6.93;3.70;;;4.10;88.90;;;;;;6246904;23;20336;-80
2021/04/14 00:09:14;;;;;;;9.57;4.15;;;4.20;88.80;;;;;;6245117;23;20127;-79
2021/04/14 00:11:45;;;;;;;7.30;4.00;;;4.00;89.00;;;;;;6245468;23;20530;-80
2021/04/14 00:14:13;;;;;;;8.32;3.70;;;4.00;89.30;;;;;;6245510;23;20070;-80
2021/04/14 00:16:39;;;;;;;8.07;3.70;;;4.00;89.20;;;;;;6242727;23;20427;-80
2021/04/14 00:19:06;;;;;;;10.50;3.67;;;3.90;89.00;;;;;;6242976;23;20112;-80
2021/04/14 00:21:31;;;;;;;7.45;3.78;;;4.00;89.00;;;;;;6242720;23;20095;-80
2021/04/14 00:23:58;;;;;;;8.82;3.90;;;3.90;89.60;;;;;;6245420;23;20510;-80
2021/04/14 00:26:24;;;;;;;6.95;3.70;;;3.90;88.80;;;;;;6246002;23;20024;-80
2021/04/14 00:28:50;;;;;;;7.68;3.50;;;3.80;88.80;;;;;;6246379;23;20433;-80
2021/04/14 00:31:16;;;;;;;6.80;3.75;;;3.80;88.90;;;;;;6245129;23;20062;-79
2021/04/14 00:33:43;;;;;;;7.00;3.90;;;3.80;89.00;;;;;;6246194;23;20031;-79
2021/04/14 00:36:10;;;;;;;8.82;3.83;;;3.70;88.90;;;;;;6245565;23;20016;-80
2021/04/14 00:38:36;;;;;;;8.10;3.97;;;3.70;88.90;;;;;;6218000;23;20022;-80
2021/04/14 00:41:12;;;;;;;9.65;4.05;;;3.70;89.10;;;;;;6245551;23;20095;-80
2021/04/14 00:43:38;;;;;;;6.88;3.83;;;3.60;89.20;;;;;;6246005;23;20012;-79
2021/04/14 00:46:06;;;;;;;8.18;4.03;;;3.60;89.00;;;;;;6245169;23;20147;-80
2021/04/14 00:48:32;;;;;;;7.85;4.10;;;3.60;89.20;;;;;;6245667;23;20098;-80
2021/04/14 00:50:59;;;;;;;8.25;4.18;;;3.50;89.00;;;;;;6245264;23;20105;-79
2021/04/14 00:53:25;;;;;;;7.93;3.80;;;3.60;89.20;;;;;;6245217;23;20506;-80
2021/04/14 00:55:53;;;;;;;7.75;4.18;;;3.50;89.10;;;;;;6246069;23;20020;-80
2021/04/14 00:58:19;;;;;;;9.82;4.45;;;3.50;89.10;;;;;;6244869;23;20012;-80
2021/04/14 01:00:56;;;;;;;8.32;4.53;;;3.40;88.90;;;;;;6246023;23;20016;-80
2021/04/14 01:03:26;;;;;;;8.27;4.22;;;3.40;89.40;;;;;;6244365;23;20016;-80
2021/04/14 01:05:54;;;;;;;8.52;4.45;;;3.40;89.40;;;;;;6244299;23;20115;-79
2021/04/14 01:08:21;;;;;;;9.18;4.45;;;3.30;89.40;;;;;;6241150;23;20016;-80
2021/04/14 01:10:46;;;;;;;8.77;4.45;;;3.30;89.50;;;;;;6244961;23;20134;-80
2021/04/14 01:13:13;;;;;;;10.65;4.65;;;3.30;89.40;;;;;;6244163;23;20032;-80
2021/04/14 01:15:46;;;;;;;7.40;4.45;;;3.20;89.20;;;;;;6245920;23;20087;-80
2021/04/14 01:18:17;;;;;;;10.65;4.65;;;3.20;89.20;;;;;;6245610;23;20012;-79
2021/04/14 01:20:43;;;;;;;9.48;4.40;;;3.20;89.40;;;;;;6244755;23;20023;-79
2021/04/14 01:23:10;;;;;;;9.25;4.43;;;3.20;89.20;;;;;;6245404;23;20012;-79
2021/04/14 01:25:38;;;;;;;10.05;4.75;;;3.10;89.10;;;;;;6245736;23;20070;-80
2021/04/14 01:28:10;;;;;;;12.77;5.32;;;3.10;89.20;;;;;;6244678;23;20025;-80
2021/04/14 01:30:35;;;;;;;9.57;4.88;;;3.10;89.40;;;;;;6245819;23;20017;-79
2021/04/14 01:33:06;;;;;;;9.50;4.43;;;3.10;89.50;;;;;;6245736;23;20111;-79
2021/04/14 01:35:33;;;;;;;8.90;4.88;;;3.00;89.50;;;;;;6245308;23;20023;-80
2021/04/14 01:38:02;;;;;;;7.10;4.32;;;3.00;89.60;;;;;;6245480;23;20012;-79
2021/04/14 01:40:28;;;;;;;7.35;4.28;;;3.00;89.60;;;;;;6242888;23;20748;-79
2021/04/14 01:42:55;;;;;;;9.23;4.03;;;3.00;89.70;;;;;;6245586;23;20066;-79
2021/04/14 01:45:27;;;;;;;7.00;4.47;;;3.00;89.80;;;;;;6245345;23;20061;-80
2021/04/14 01:47:53;;;;;;;7.38;4.25;;;2.90;89.90;;;;;;6244881;23;20035;-80
2021/04/14 01:50:19;;;;;;;10.27;4.47;;;3.00;89.90;;;;;;6244292;23;20432;-80
2021/04/14 01:52:45;;;;;;;8.07;5.05;;;2.90;90.00;;;;;;6245663;23;20036;-79
2021/04/14 01:55:11;;;;;;;8.18;3.83;;;2.90;90.10;;;;;;6243990;23;20379;-80
2021/04/14 01:57:37;;;;;;;7.32;4.18;;;2.80;90.00;;;;;;6245311;23;20012;-79
2021/04/14 02:00:15;;;;;;;7.72;4.35;;;2.80;90.00;;;;;;6245581;23;20458;-80
2021/04/14 02:02:41;;;;;;;8.52;4.35;;;2.80;90.00;;;;;;6244707;23;20281;-79
2021/04/14 02:05:10;;;;;;;8.27;4.55;;;2.80;90.00;;;;;;6245338;23;20020;-80
2021/04/14 02:07:38;;;;;;;7.53;4.05;;;2.70;90.00;;;;;;6245656;23;20016;-80
2021/04/14 02:10:07;;;;;;;7.32;4.18;;;2.70;90.00;;;;;;6244276;23;20027;-80
2021/04/14 02:12:34;;;;;;;8.25;4.32;;;2.70;89.80;;;;;;6245223;23;20066;-80
2021/04/14 02:15:03;;;;;;;9.25;4.57;;;2.70;89.70;;;;;;6244721;23;20095;-79
2021/04/14 02:17:31;;;;;;;7.85;4.55;;;2.60;89.40;;;;;;6244389;23;20094;-79
2021/04/14 02:19:57;;;;;;;9.80;4.35;;;2.60;89.60;;;;;;6245172;23;20016;-79
2021/04/14 02:22:23;;;;;;;8.13;4.35;;;2.60;89.50;;;;;;6243718;23;20105;-79
2021/04/14 02:25:11;;;;;;;6.97;4.35;;;2.60;89.60;;;;;;6222590;23;20020;-78
2021/04/14 02:27:37;;;;;;;8.65;4.00;;;2.50;89.80;;;;;;6245298;23;20019;-79
2021/04/14 02:30:08;;;;;;;8.18;4.43;;;2.40;89.50;;;;;;6244075;23;20142;-79
2021/04/14 02:32:34;;;;;;;9.73;4.57;;;2.40;89.50;;;;;;6245588;23;20027;-79
2021/04/14 02:35:01;;;;;;;8.45;4.55;;;2.40;89.50;;;;;;6245074;23;20020;-79
2021/04/14 02:37:30;;;;;;;9.30;4.93;;;2.40;89.70;;;;;;6244121;23;20091;-79
2021/04/14 02:40:13;;;;;;;9.50;4.30;;;2.40;89.80;;;;;;6244798;23;20452;-78
2021/04/14 02:42:40;;;;;;;7.55;4.07;;;2.30;89.70;;;;;;6244910;23;20336;-79
2021/04/14 02:45:29;;;;;;;8.43;4.55;;;2.30;89.70;;;;;;6243514;23;20030;-78
2021/04/14 02:47:55;;;;;;;8.68;4.50;;;2.30;89.70;;;;;;6244933;23;20099;-79
2021/04/14 02:50:23;;;;;;;7.00;4.45;;;2.20;89.50;;;;;;6244496;23;20043;-78
2021/04/14 02:53:10;;;;;;;8.13;4.60;;;2.20;89.70;;;;;;6222328;23;20110;-78
2021/04/14 02:55:37;;;;;;;7.93;4.18;;;2.20;89.80;;;;;;6245336;23;20016;-79
2021/04/14 02:58:12;;;;;;;11.95;4.38;;;2.20;89.80;;;;;;6243981;23;20012;-79
2021/04/14 03:00:37;;;;;;;9.40;5.05;;;2.20;89.50;;;;;;6245562;23;20085;-79
2021/04/14 03:03:06;;;;;;;9.32;4.63;;;2.10;89.60;;;;;;6247117;23;20047;-79
2021/04/14 03:05:34;;;;;;;8.00;4.50;;;2.10;90.00;;;;;;6245640;23;20095;-79
2021/04/14 03:08:00;;;;;;;8.90;4.70;;;2.10;89.80;;;;;;6247012;23;20012;-78
2021/04/14 03:10:27;;;;;;;9.30;4.60;;;2.10;89.90;;;;;;6246575;23;20016;-78
2021/04/14 03:12:53;;;;;;;9.63;4.90;;;2.10;90.00;;;;;;6244442;23;20016;-78
2021/04/14 03:15:30;;;;;;;10.73;5.07;;;2.10;90.10;;;;;;6245837;23;20313;-79
2021/04/14 03:17:57;;;;;;;7.25;4.57;;;2.00;90.20;;;;;;6246170;23;20023;-79
2021/04/14 03:20:44;;;;;;;8.70;5.05;;;2.00;90.10;;;;;;6223346;23;20391;-78
2021/04/14 03:23:16;;;;;;;10.80;4.95;;;2.00;90.20;;;;;;6246594;23;20012;-79
2021/04/14 03:25:42;;;;;;;9.30;5.05;;;2.00;90.20;;;;;;6245850;23;20013;-78
2021/04/14 03:28:08;;;;;;;8.82;5.25;;;2.00;90.30;;;;;;6246818;23;20023;-78
2021/04/14 03:30:34;;;;;;;8.32;5.07;;;2.00;90.40;;;;;;6246453;23;20008;-79
2021/04/14 03:33:00;;;;;;;9.35;4.90;;;2.00;90.40;;;;;;6244678;23;20042;-79
2021/04/14 03:35:28;;;;;;;8.13;4.38;;;2.00;90.50;;;;;;6246428;23;20433;-79
2021/04/14 03:37:54;;;;;;;8.35;4.88;;;2.00;90.40;;;;;;6246964;23;20091;-79
2021/04/14 03:40:41;;;;;;;7.90;4.70;;;2.00;90.30;;;;;;6222975;23;20020;-79
2021/04/14 03:43:08;;;;;;;7.82;4.20;;;1.90;90.30;;;;;;6246780;23;20431;-79
2021/04/14 03:45:41;;;;;;;8.98;4.65;;;1.90;90.20;;;;;;6247126;23;20074;-78
2021/04/14 03:48:08;;;;;;;9.20;4.82;;;1.90;90.20;;;;;;6245783;23;20020;-78
2021/04/14 03:50:34;;;;;;;10.70;5.43;;;1.80;90.00;;;;;;6246918;23;20083;-79
2021/04/14 03:53:25;;;;;;;7.80;4.55;;;1.80;90.10;;;;;;6246601;23;20016;-78
2021/04/14 03:56:06;;;;;;;8.43;4.88;;;1.80;90.20;;;;;;6245714;23;20020;-79
2021/04/14 03:58:34;;;;;;;11.77;4.68;;;1.80;90.20;;;;;;6246078;23;20095;-78
2021/04/14 04:01:03;;;;;;;7.63;4.63;;;1.70;90.10;;;;;;6245200;23;20020;-80
2021/04/14 04:03:29;;;;;;;9.43;4.78;;;1.70;90.10;;;;;;6246286;23;20016;-79
2021/04/14 04:05:58;;;;;;;7.25;4.10;;;1.70;90.10;;;;;;6246008;23;20464;-79
2021/04/14 04:08:40;;;;;;;10.85;3.85;;;1.70;90.10;;;;;;6244990;23;20017;-79
2021/04/14 04:11:07;;;;;;;8.50;4.20;;;1.60;90.10;;;;;;6246271;23;20032;-79
2021/04/14 04:13:34;;;;;;;8.68;4.20;;;1.60;90.10;;;;;;6245615;23;20016;-79
2021/04/14 04:16:20;;;;;;;10.32;4.70;;;1.60;90.10;;;;;;6223055;23;20051;-78
2021/04/14 04:18:45;;;;;;;6.97;3.90;;;1.60;90.20;;;;;;6246466;23;20335;-78
2021/04/14 04:21:12;;;;;;;7.78;4.18;;;1.50;90.20;;;;;;6245900;23;20016;-78
2021/04/14 04:23:38;;;;;;;9.77;4.22;;;1.50;90.30;;;;;;6245543;23;20046;-78
2021/04/14 04:26:06;;;;;;;7.43;3.72;;;1.50;90.30;;;;;;6246266;23;20050;-78
2021/04/14 04:28:32;;;;;;;7.15;3.90;;;1.50;90.30;;;;;;6245767;23;20012;-78
2021/04/14 04:31:00;;;;;;;7.20;3.95;;;1.50;90.30;;;;;;6245261;23;20016;-79
2021/04/14 04:33:26;;;;;;;7.22;3.78;;;1.50;90.70;;;;;;6244555;23;20115;-79
2021/04/14 04:35:52;;;;;;;7.82;3.75;;;1.50;90.30;;;;;;6245492;23;20044;-79
2021/04/14 04:38:20;;;;;;;9.80;4.60;;;1.40;90.30;;;;;;6243968;23;20328;-79
2021/04/14 04:40:46;;;;;;;7.85;3.67;;;1.40;90.40;;;;;;6245127;23;20024;-79
2021/04/14 04:43:23;;;;;;;7.88;4.00;;;1.40;90.40;;;;;;6244638;23;20096;-79
2021/04/14 04:45:51;;;;;;;8.02;4.03;;;1.40;90.40;;;;;;6245730;23;20460;-80
2021/04/14 04:48:16;;;;;;;7.40;4.28;;;1.30;90.40;;;;;;6245764;23;20016;-79
2021/04/14 04:50:42;;;;;;;6.70;3.80;;;1.30;90.40;;;;;;6245121;23;20046;-79
2021/04/14 04:53:16;;;;;;;9.65;3.90;;;1.30;90.50;;;;;;6246016;23;20310;-79
2021/04/14 04:55:46;;;;;;;9.10;4.13;;;1.30;90.60;;;;;;6246129;23;20122;-79
2021/04/14 04:58:18;;;;;;;7.22;3.70;;;1.30;90.70;;;;;;6244837;23;20332;-79
2021/04/14 05:00:54;;;;;;;7.05;3.50;;;1.40;90.60;;;;;;6245742;23;20043;-79
2021/04/14 05:03:22;;;;;;;7.05;4.15;;;1.30;90.60;;;;;;6245591;23;20012;-80
2021/04/14 05:05:49;;;;;;;8.27;4.28;;;1.30;90.60;;;;;;6244585;23;20022;-79
2021/04/14 05:08:16;;;;;;;8.60;3.97;;;1.30;90.60;;;;;;6245792;23;20023;-80
2021/04/14 05:10:41;;;;;;;6.55;3.10;;;1.30;90.60;;;;;;6245928;23;20020;-80
2021/04/14 05:13:10;;;;;;;7.32;3.70;;;1.30;90.50;;;;;;6243538;23;20016;-80
2021/04/14 05:15:39;;;;;;;7.70;3.65;;;1.30;90.50;;;;;;6245318;23;20019;-79
2021/04/14 05:18:06;;;;;;;9.73;3.80;;;1.20;90.30;;;;;;6245457;23;20071;-79
2021/04/14 05:20:37;;;;;;;6.35;3.53;;;1.20;90.30;;;;;;6246028;23;20099;-80
2021/04/14 05:23:05;;;;;;;7.28;3.10;;;1.20;90.40;;;;;;6245372;23;20046;-80
2021/04/14 05:25:32;;;;;;;9.93;4.13;;;1.20;90.40;;;;;;6244682;23;20046;-80
2021/04/14 05:28:20;;;;;;;7.00;3.40;;;1.20;90.40;;;;;;6245761;23;20012;-80
2021/04/14 05:30:46;;;;;;;8.43;4.00;;;1.10;90.30;;;;;;6245282;23;20095;-80
2021/04/14 05:33:14;;;;;;;7.07;3.50;;;1.10;90.30;;;;;;6243952;23;20388;-77
2021/04/14 05:35:41;;;;;;;6.70;3.65;;;1.10;90.30;;;;;;6244175;23;20024;-78
2021/04/14 05:38:08;;;;;;;7.68;3.88;;;1.10;90.20;;;;;;6245179;23;20013;-77
2021/04/14 05:40:34;;;;;;;6.20;3.33;;;1.10;90.40;;;;;;6244574;23;20340;-78
2021/04/14 05:43:26;;;;;;;6.22;3.55;;;1.10;90.40;;;;;;6222280;23;20016;-79
2021/04/14 05:46:01;;;;;;;7.88;3.80;;;1.10;90.30;;;;;;6218850;23;20020;-79
2021/04/14 05:48:33;;;;;;;10.07;3.63;;;1.10;90.40;;;;;;6243770;23;20087;-78
2021/04/14 05:51:04;;;;;;;8.02;3.70;;;1.10;90.30;;;;;;6245295;23;20024;-78
2021/04/14 05:53:30;;;;;;;8.63;3.95;;;1.00;90.30;;;;;;6243799;23;20016;-78
2021/04/14 05:55:59;;;;;;;7.65;3.33;;;1.00;90.30;;;;;;6245018;23;20020;-79
2021/04/14 05:58:28;;;;;;;7.88;3.38;;;1.00;90.30;;;;;;6243545;23;20478;-79
2021/04/14 06:00:56;;;;;;;5.93;3.53;;;1.00;90.30;;;;;;6239621;23;20155;-79
2021/04/14 06:03:26;;;;;;;7.15;3.60;;;1.00;90.30;;;;;;6211670;23;20102;-79
2021/04/14 06:05:53;;;;;;;8.30;3.60;;;1.00;90.30;;;;;;6219905;23;20012;-78
2021/04/14 06:08:30;;;;;;;8.65;4.10;;;1.00;90.30;;;;;;6243217;23;20336;-78
2021/04/14 06:11:15;;;;;;;7.18;4.03;;;1.00;90.30;;;;;;6216391;23;20030;-77
2021/04/14 06:13:45;;;;;;;8.38;3.20;;;1.00;90.30;;;;;;6243190;23;20246;-77
2021/04/14 06:16:18;;;;;;;7.40;3.30;;;1.10;90.30;;;;;;6237490;23;20027;-78
2021/04/14 06:18:44;;;;;;;7.78;4.47;;;1.10;90.30;;;;;;6243543;23;20077;-78
2021/04/14 06:21:13;;;;;;;7.00;3.40;;;1.20;90.30;;;;;;6244215;23;20081;-78
2021/04/14 06:23:43;;;;;;;7.68;2.90;;;1.20;90.30;;;;;;6243840;23;20024;-78
2021/04/14 06:26:17;;;;;;;7.97;3.88;;;1.30;90.30;;;;;;6244193;23;20424;-78
2021/04/14 06:28:43;;;;;;;8.38;3.30;;;1.30;90.30;;;;;;6243237;23;20384;-79
2021/04/14 06:31:11;;;;;;;11.13;3.38;;;1.40;90.30;;;;;;6244250;23;20043;-79
2021/04/14 06:33:44;;;;;;;9.90;4.18;;;1.50;90.30;;;;;;6244174;23;20036;-79
2021/04/14 06:36:10;;;;;;;8.23;3.08;;;1.60;90.50;;;;;;6243076;23;20028;-79
2021/04/14 06:38:41;;;;;;;9.77;3.30;;;1.70;90.40;;;;;;6247357;23;20012;-79
2021/04/14 06:41:51;;;;;;;6.10;2.83;;;1.80;90.30;;;;;;6245867;23;20483;-82
2021/04/14 06:44:38;;;;;;;15.95;3.47;;;1.90;90.40;;;;;;6243199;23;20499;-79
2021/04/14 06:47:23;;;;;;;7.68;3.58;;;2.00;90.40;;;;;;6245769;23;20027;-76
2021/04/14 06:50:09;;;;;;;5.78;3.30;;;2.10;90.40;;;;;;6236177;23;20456;-78
2021/04/14 06:52:46;;;;;;;8.68;3.03;;;2.20;90.40;;;;;;6245788;23;20383;-78
2021/04/14 06:55:27;;;;;;;9.27;3.10;;;2.30;90.30;;;;;;6246685;23;20135;-78
2021/04/14 06:58:00;;;;;;;7.75;2.70;;;2.40;90.30;;;;;;6245742;23;20020;-78
2021/04/14 07:00:36;;;;;;;4.85;2.28;;;2.50;90.30;;;;;;6245596;23;20453;-80
2021/04/14 07:03:15;;;;;;;5.18;2.80;;;2.70;90.20;;;;;;6246711;23;20127;-79
2021/04/14 07:05:48;;;;;;;6.38;2.90;;;2.80;90.20;;;;;;6244984;23;20022;-79
2021/04/14 07:08:24;;;;;;;6.07;2.80;;;2.90;90.10;;;;;;6246100;23;20095;-79
2021/04/14 07:11:03;;;;;;;5.88;2.85;;;3.10;90.10;;;;;;6245550;23;20099;-79
2021/04/14 07:13:40;;;;;;;5.82;3.10;;;3.10;90.00;;;;;;6245094;23;20383;-79
2021/04/14 07:16:43;;;;;;;6.60;2.70;;;3.20;90.10;;;;;;6220168;23;20091;-80
2021/04/14 07:19:27;;;;;;;6.93;2.65;;;3.40;90.10;;;;;;6221571;23;20077;-79
2021/04/14 07:22:34;;;;;;;4.63;2.33;;;3.50;90.20;;;;;;6246501;23;20046;-79
2021/04/14 07:25:30;;;;;;;7.63;3.05;;;3.60;89.80;;;;;;6093304;23;20026;-79
2021/04/14 07:28:43;;;;;;;6.75;2.40;;;3.80;89.90;;;;;;6073500;23;20023;-79
2021/04/14 07:31:23;;;;;;;7.75;2.70;;;4.00;89.70;;;;;;6246057;23;20115;-80
2021/04/14 07:34:06;;;;;;;7.10;2.20;;;4.10;89.20;;;;;;6245283;23;20022;-79
2021/04/14 07:37:00;;;;;;;6.15;1.85;;;4.20;88.90;;;;;;6245955;23;20082;-78
2021/04/14 07:40:08;;;;;;;5.75;1.92;;;4.30;88.60;;;;;;6240905;23;20040;-78
2021/04/14 07:43:13;;;;;;;5.50;1.73;;;4.40;88.10;;;;;;6091931;23;20121;-79
2021/04/14 07:45:42;;;;;;;4.97;1.90;;;4.60;87.70;;;;;;6114144;23;20021;-81
2021/04/14 07:48:28;;;;;;;5.97;1.80;;;4.70;87.60;;;;;;6185116;23;20048;-81
2021/04/14 07:51:57;;;;;;;7.70;1.92;;;4.80;87.50;;;;;;6214747;23;20013;-81
2021/04/14 07:55:37;;;;;;;;;;;;;;;;;;;;;
2021/04/14 07:59:35;;;;;;;;;;;;;;;;;;;;;
2021/04/14 08:25:02;;;;;;;6.75;1.33;;;5.90;82.50;;;;;;6137305;23;20029;-82
2021/04/14 08:28:54;;;;;;;8.20;1.45;;;6.10;81.50;;;;;;6082766;23;20025;-82
2021/04/14 08:35:17;;;;;;;;;;;;;;;;;;;;;
2021/04/14 08:38:27;;;;;;;7.25;1.02;;;6.50;79.80;;;;;;6008559;23;20400;-81
2021/04/14 08:41:18;;;;;;;;;;;;;;;;;;;;;
2021/04/14 08:44:06;;;;;;;6.20;1.65;;;6.70;79.90;;;;;;6161757;23;20068;-82
2021/04/14 08:46:41;;;;;;;3.70;0.90;;;6.80;79.60;;;;;;6162967;23;20021;-83
2021/04/14 08:49:22;;;;;;;6.63;0.95;;;6.90;79.30;;;;;;6163038;23;20017;-82
2021/04/14 08:51:54;;;;;;;8.15;1.20;;;7.00;78.60;;;;;;6162624;23;20018;-82
2021/04/14 08:54:28;;;;;;;7.47;1.20;;;7.10;78.40;;;;;;6163043;23;20041;-82
2021/04/14 08:56:54;;;;;;;7.53;1.10;;;7.30;78.90;;;;;;6161730;23;20354;-83
2021/04/14 08:59:21;;;;;;;4.88;1.00;;;7.30;77.30;;;;;;6162969;23;20013;-81
2021/04/14 09:01:55;;;;;;;8.13;1.40;;;7.40;75.60;;;;;;6163281;23;20013;-82
2021/04/14 09:04:43;;;;;;;7.60;0.90;;;7.50;77.90;;;;;;6160149;23;20449;-86
2021/04/14 09:07:15;;;;;;;4.80;0.98;;;7.50;75.70;;;;;;6161526;23;20025;-82
2021/04/14 09:09:48;;;;;;;6.20;0.90;;;7.50;76.80;;;;;;6162750;23;20010;-81
2021/04/14 09:12:26;;;;;;;;;;;7.60;75.70;;;;;;6162920;23;20018;-80
2021/04/14 09:15:22;;;;;;;6.53;0.90;;;7.60;75.20;;;;;;6163374;23;19912;-81
2021/04/14 09:18:03;;;;;;;9.27;0.90;;;7.70;76.60;;;;;;6155208;23;20097;-81
2021/04/14 09:20:38;;;;;;;9.00;0.80;;;7.80;75.60;;;;;;6156205;23;20017;-81
2021/04/14 09:23:08;;;;;;;5.22;0.95;;;7.80;74.10;;;;;;6142079;23;20370;-81
2021/04/14 09:25:51;;;;;;;5.97;0.93;;;7.70;72.80;;;;;;6154907;23;20027;-81
2021/04/14 09:28:34;;;;;;;5.93;0.90;;;7.70;74.40;;;;;;6156010;23;20022;-81
2021/04/14 09:31:39;;;;;;;5.15;1.00;;;7.70;76.40;;;;;;6156569;23;20055;-81
2021/04/14 09:34:14;;;;;;;4.28;1.02;;;7.80;78.10;;;;;;6155224;23;20025;-81
2021/04/14 09:36:53;;;;;;;6.88;0.90;;;7.90;79.20;;;;;;6156282;23;20386;-82
2021/04/14 09:39:46;;;;;;;4.63;1.15;;;8.00;79.70;;;;;;6155400;23;20014;-81
2021/04/14 09:42:34;;;;;;;4.78;1.10;;;8.10;80.30;;;;;;6155843;23;20059;-82
2021/04/14 09:45:36;;;;;;;7.00;0.90;;;8.20;81.50;;;;;;6156046;23;20346;-81
2021/04/14 09:48:15;;;;;;;5.22;1.00;;;8.30;81.20;;;;;;6147496;23;20013;-81
2021/04/14 09:50:45;;;;;;;3.97;0.90;;;8.40;81.40;;;;;;6155736;23;20096;-81
2021/04/14 09:53:37;;;;;;;7.28;1.20;;;8.40;81.60;;;;;;6153934;23;20041;-81
2021/04/14 09:56:12;;;;;;;5.50;0.88;;;8.50;82.00;;;;;;6155929;23;20101;-84
2021/04/14 09:58:56;;;;;;;4.03;0.80;;;8.60;82.00;;;;;;6154051;23;20084;-85
2021/04/14 10:01:37;;;;;;;4.20;0.95;;;8.60;81.80;;;;;;6153581;23;20030;-82
2021/04/14 10:04:07;;;;;;;5.63;0.98;;;8.60;82.00;;;;;;6155174;23;20020;-82
2021/04/14 10:06:33;;;;;;;3.58;0.70;;;8.70;82.40;;;;;;6154746;23;20024;-82
2021/04/14 10:09:02;;;;;;;3.38;0.70;;;8.70;81.60;;;;;;6156330;23;20084;-82
2021/04/14 10:11:40;;;;;;;3.50;0.70;;;8.70;82.10;;;;;;6154245;23;20191;-82
2021/04/14 10:14:11;;;;;;;3.05;0.60;;;8.80;82.70;;;;;;6154513;23;20075;-80
2021/04/14 10:16:37;;;;;;;2.92;0.70;;;8.80;81.70;;;;;;6155076;23;20465;-81
2021/04/14 10:19:07;;;;;;;4.35;0.80;;;8.80;81.70;;;;;;6156097;23;20017;-81
2021/04/14 10:21:40;;;;;;;2.70;0.63;;;8.80;80.60;;;;;;6154075;23;20018;-83
2021/04/14 10:24:12;;;;;;;3.92;0.68;;;8.80;81.00;;;;;;6155913;23;20026;-82
2021/04/14 10:26:58;;;;;;;3.97;1.00;;;8.80;81.20;;;;;;6156955;23;20013;-82
2021/04/14 10:29:30;;;;;;;3.00;0.60;;;8.90;81.80;;;;;;6157632;23;20021;-82
2021/04/14 10:32:02;;;;;;;1.98;0.47;;;8.90;82.10;;;;;;6154876;23;20025;-83
2021/04/14 10:34:34;;;;;;;2.75;0.57;;;8.90;78.90;;;;;;6156006;23;20097;-83
2021/04/14 10:37:12;;;;;;;2.90;0.70;;;9.00;80.00;;;;;;6155206;23;20312;-83
2021/04/14 10:43:54;;;;;;;5.35;0.77;;;9.20;78.70;;;;;;6128040;23;20458;-83
2021/04/14 10:49:26;;;;;;;4.65;0.80;;;9.30;75.60;;;;;;6112355;23;20335;-82
2021/04/14 10:52:11;;;;;;;6.38;0.90;;;9.30;73.90;;;;;;6103371;23;20079;-82
2021/04/14 10:54:45;;;;;;;2.22;0.57;;;9.30;72.60;;;;;;6149501;23;20014;-83
2021/04/14 10:57:30;;;;;;;2.13;0.50;;;9.30;72.20;;;;;;6153525;23;20021;-82
2021/04/14 11:00:06;;;;;;;2.55;0.50;;;9.30;71.70;;;;;;6155511;23;20023;-82
2021/04/14 11:02:36;;;;;;;3.13;0.50;;;9.30;70.50;;;;;;6154695;23;20347;-83
2021/04/14 11:05:03;;;;;;;3.30;0.60;;;9.20;70.80;;;;;;6153434;23;20033;-83
2021/04/14 11:07:30;;;;;;;2.33;0.68;;;9.20;73.10;;;;;;6153571;23;20461;-82
2021/04/14 11:09:59;;;;;;;2.10;0.52;;;9.30;74.60;;;;;;6152104;23;20021;-83
2021/04/14 11:12:26;;;;;;;3.45;0.70;;;9.40;75.70;;;;;;6153453;23;20387;-83
2021/04/14 11:14:56;;;;;;;3.55;0.63;;;9.60;76.80;;;;;;6155380;23;20021;-84
2021/04/14 11:17:29;;;;;;;1.83;0.43;;;9.70;77.50;;;;;;6153057;23;20024;-84
2021/04/14 11:20:10;;;;;;;2.78;0.60;;;9.80;78.10;;;;;;6154117;23;20029;-82
2021/04/14 11:22:54;;;;;;;2.63;0.43;;;9.90;78.00;;;;;;6154983;23;20018;-83
2021/04/14 11:25:31;;;;;;;2.97;0.75;;;9.90;75.00;;;;;;6153795;23;20152;-83
2021/04/14 11:28:18;;;;;;;5.00;0.65;;;9.90;74.30;;;;;;6150530;23;20020;-82
2021/04/14 11:30:57;;;;;;;4.45;0.85;;;9.90;75.10;;;;;;6151739;23;20021;-82
2021/04/14 11:33:53;;;;;;;3.10;0.63;;;9.90;73.70;;;;;;6147219;23;20145;-83
2021/04/14 11:36:25;;;;;;;3.78;0.60;;;9.90;73.70;;;;;;6154584;23;20021;-82
2021/04/14 11:39:18;;;;;;;5.53;0.85;;;9.90;74.70;;;;;;6153657;23;20521;-83
2021/04/14 11:42:12;;;;;;;3.00;0.77;;;9.90;75.70;;;;;;6154921;23;20021;-81
2021/04/14 11:45:02;;;;;;;3.90;0.95;;;9.80;74.60;;;;;;6154762;23;20017;-81
2021/04/14 11:47:44;;;;;;;3.35;0.60;;;9.80;76.40;;;;;;6153810;23;20024;-81
2021/04/14 11:50:38;;;;;;;2.63;0.47;;;9.90;75.20;;;;;;6153962;23;20049;-80
2021/04/14 11:53:28;;;;;;;3.05;0.52;;;9.90;74.80;;;;;;6150733;23;20041;-81
2021/04/14 11:55:57;;;;;;;3.97;0.65;;;9.80;73.40;;;;;;6148190;23;20484;-78
2021/04/14 11:58:54;;;;;;;7.72;1.00;;;9.80;74.30;;;;;;6123560;23;20021;-80
2021/04/14 12:01:24;;;;;;;3.70;0.60;;;9.90;73.00;;;;;;6151424;23;20382;-81
2021/04/14 12:03:50;;;;;;;2.50;0.57;;;9.90;75.10;;;;;;6154403;23;20036;-80
2021/04/14 12:06:22;;;;;;;5.70;0.90;;;10.00;76.70;;;;;;6153348;23;20026;-82
2021/04/14 12:08:48;;;;;;;4.05;0.73;;;10.10;74.70;;;;;;6154959;23;20498;-83
2021/04/14 12:14:33;;;;;;;5.22;0.68;;;10.20;76.60;;;;;;6153691;23;20018;-83
2021/04/14 12:17:17;;;;;;;3.38;0.73;;;10.30;76.50;;;;;;6110606;23;20018;-83
2021/04/14 12:19:45;;;;;;;3.95;0.63;;;10.40;75.60;;;;;;6154406;23;20100;-82
2021/04/14 12:22:16;;;;;;;3.85;0.90;;;10.40;76.10;;;;;;6151538;23;20013;-84
2021/04/14 12:24:43;;;;;;;3.80;0.63;;;10.50;77.70;;;;;;6148029;23;20080;-81
2021/04/14 12:27:28;;;;;;;4.50;0.80;;;10.50;78.20;;;;;;6148949;23;20014;-80
2021/04/14 12:30:02;;;;;;;4.22;0.93;;;10.50;77.80;;;;;;6151838;23;20335;-79
2021/04/14 12:32:31;;;;;;;4.93;0.90;;;10.50;78.40;;;;;;6154042;23;20064;-81
2021/04/14 12:34:56;;;;;;;3.78;0.85;;;10.60;78.70;;;;;;6153534;23;20048;-79
2021/04/14 12:37:22;;;;;;;3.47;0.70;;;10.70;77.60;;;;;;6154057;23;20021;-79
2021/04/14 12:40:39;;;;;;;4.93;0.63;;;10.70;78.70;;;;;;6153331;23;20454;-81
2021/04/14 12:43:33;;;;;;;3.55;0.75;;;10.80;75.20;;;;;;6093845;23;20019;-82
2021/04/14 12:46:13;;;;;;;3.85;0.70;;;10.80;75.30;;;;;;6143770;23;20023;-80
2021/04/14 12:48:52;;;;;;;5.05;0.77;;;10.80;75.80;;;;;;6154249;23;20088;-80
2021/04/14 12:51:42;;;;;;;2.65;0.70;;;10.80;75.60;;;;;;6154649;23;20026;-80
2021/04/14 12:54:36;;;;;;;3.38;0.70;;;10.90;75.90;;;;;;6150598;23;20386;-79
2021/04/14 12:57:06;;;;;;;7.82;0.88;;;11.00;77.70;;;;;;6155267;23;20045;-79
2021/04/14 12:59:57;;;;;;;4.68;0.88;;;11.00;77.80;;;;;;6154575;23;20013;-81
2021/04/14 13:02:43;;;;;;;;;;;11.00;75.80;;;;;;6155764;23;20100;-80
2021/04/14 13:06:01;;;;;;;5.25;0.90;;;10.90;70.40;;;;;;6155062;23;20370;-81
2021/04/14 13:08:57;;;;;;;3.95;0.75;;;10.80;69.70;;;;;;6097289;23;20111;-81
2021/04/14 13:15:41;;;;;;;5.00;0.90;;;10.70;72.40;;;;;;6125697;23;20464;-81
2021/04/14 13:21:43;;;;;;;;;;;10.70;70.30;;;;;;6156209;23;20028;-80
2021/04/14 13:25:07;;;;;;;2.67;0.60;;;10.60;63.30;;;;;;6153175;23;19916;-81
2021/04/14 13:28:01;;;;;;;3.65;0.70;;;10.60;69.70;;;;;;6151655;23;20018;-82
2021/04/14 13:31:15;;;;;;;;;;;;;;;;;;;;;
2021/04/14 13:34:19;;;;;;;3.35;0.80;;;10.70;70.60;;;;;;6154959;23;20025;-83
2021/04/14 13:37:49;;;;;;;;;;;;;;;;;;;;;
2021/04/14 13:48:34;;;;;;;3.20;0.65;;;10.70;69.40;;;;;;6019508;23;20462;-81
2021/04/14 13:51:07;;;;;;;6.80;0.80;;;10.70;72.50;;;;;;6019070;23;20135;-83
2021/04/14 13:54:03;;;;;;;7.38;0.70;;;10.80;70.50;;;;;;6055599;23;20026;-83
2021/04/14 13:56:56;;;;;;;3.20;0.82;;;10.80;68.90;;;;;;6066139;23;20066;-83
2021/04/14 14:00:00;;;;;;;3.42;0.75;;;10.80;67.00;;;;;;6124806;23;20379;-83
2021/04/14 14:02:32;;;;;;;;;;;10.70;68.00;;;;;;6127011;23;20021;-83
2021/04/14 14:05:58;;;;;;;5.15;0.75;;;10.70;62.80;;;;;;6124858;23;19920;-83
2021/04/14 14:08:30;;;;;;;3.97;0.80;;;10.70;67.80;;;;;;6120855;23;20020;-84
2021/04/14 14:11:28;;;;;;;4.93;0.70;;;10.90;71.80;;;;;;6126551;23;20065;-84
2021/04/14 14:14:01;;;;;;;3.75;0.60;;;10.90;71.90;;;;;;6125578;23;20082;-83
2021/04/14 14:17:01;;;;;;;3.78;0.73;;;11.00;69.20;;;;;;6126108;23;20054;-84
2021/04/14 14:22:30;;;;;;;4.07;0.75;;;10.80;63.70;;;;;;6123725;23;20411;-81
2021/04/14 14:25:04;;;;;;;2.40;0.60;;;10.80;67.10;;;;;;6125567;23;20014;-84
2021/04/14 14:29:59;;;;;;;3.97;0.70;;;10.80;68.20;;;;;;6125268;23;20021;-79
2021/04/14 14:32:28;;;;;;;4.00;0.68;;;10.90;68.80;;;;;;6125718;23;20117;-82
2021/04/14 14:35:10;;;;;;;2.60;0.65;;;10.90;70.80;;;;;;6121393;23;20044;-82
2021/04/14 14:38:24;;;;;;;3.10;0.63;;;10.90;70.60;;;;;;6120527;23;20029;-83
2021/04/14 14:41:04;;;;;;;2.75;0.70;;;11.00;70.30;;;;;;6082834;23;20024;-82
2021/04/14 14:44:08;;;;;;;4.70;1.05;;;11.10;72.90;;;;;;6124675;23;20014;-82
2021/04/14 14:46:40;;;;;;;3.53;0.82;;;11.10;68.50;;;;;;6088911;23;20323;-81
2021/04/14 14:49:37;;;;;;;4.78;1.00;;;11.00;71.10;;;;;;6122419;23;20116;-79
2021/04/14 14:52:08;;;;;;;5.65;0.98;;;11.00;68.20;;;;;;6124672;23;20022;-79